Latest Weather Observations for Nerriga

IDN60801

Issued at 7:35 pm EST Friday 29 August 2014 (issued every 30 minutes, with the page automatically refreshed every 10 minutes)

About weather observations | Map of weather stations | Latest weather observations for NSW | Other Formats
Station Details ID: 069128 Name: NERRIGA AWS Lat: -35.11 Lon: 150.08 Height: 622.0 m
Data from the previous 72 hours. | See also: Recent months for locations in New South Wales
Date/Time
EST
Temp
°C
App
Temp
°C
Dew
Point
Rel
Hum
%
Delta-T
°C
Wind Press
QNH
hPa
Press
MSL
hPa
Rain
since 9 am
mm
Dir
 
Spd
km/h
Gust
km/h
Spd
kts
Gust
kts
29/07:30pm 9.1 4.8 6.9 86 1.1 S 19 30 10 16 1026.5 - 0.0
29/07:00pm 9.1 6.0 7.4 89 0.8 S 13 26 7 14 1026.6 1027.5 0.0
29/06:30pm 9.3 5.8 7.3 87 1.0 S 15 24 8 13 1026.3 - 0.0
29/06:00pm 9.5 5.6 7.3 86 1.1 S 17 33 9 18 1026.1 1027.0 0.0
29/05:30pm 9.7 5.8 7.0 83 1.3 SSE 17 22 9 12 1025.8 - 0.0
29/05:00pm 10.4 5.1 6.9 79 1.7 SSE 24 32 13 17 1025.7 1026.5 0.0
29/04:30pm 11.3 7.1 7.4 77 1.9 SSE 19 30 10 16 1025.3 - 0.0
29/04:00pm 11.5 7.0 7.0 74 2.2 SSE 20 24 11 13 1025.1 1026.0 0.0
29/03:30pm 11.5 6.9 6.6 72 2.4 S 20 26 11 14 1025.2 - 0.0
29/03:00pm 12.0 6.9 5.9 66 2.9 SSE 22 26 12 14 1025.5 1026.3 0.0
29/02:30pm 12.2 8.3 7.3 72 2.5 S 17 28 9 15 1025.5 - 0.0
29/02:00pm 12.1 8.8 6.4 68 2.8 S 13 20 7 11 1025.7 1026.5 0.0
29/01:30pm 11.5 7.1 6.4 71 2.5 S 19 28 10 15 1025.9 - 0.0
29/01:00pm 12.2 8.4 6.0 66 3.0 S 15 20 8 11 1026.0 1026.9 0.0
29/12:30pm 12.1 8.5 6.8 70 2.6 SSW 15 32 8 17 1026.2 - 0.0
29/12:00pm 12.1 8.2 7.2 72 2.4 S 17 28 9 15 1026.6 1027.5 0.0
29/11:30am 10.9 7.0 7.2 78 1.8 SSE 17 26 9 14 1026.9 - 0.0
29/11:00am 11.1 8.8 9.0 87 1.1 S 11 19 6 10 1027.3 1028.1 0.0
29/10:30am 9.0 7.3 8.4 96 0.3 S 7 15 4 8 1027.4 - 0.0
29/10:00am 8.6 6.9 8.3 98 0.1 S 7 11 4 6 1027.7 1028.6 0.0
29/09:30am 6.4 4.7 6.1 98 0.1 SSE 4 7 2 4 1028.0 - 0.0
29/09:00am 5.6 3.8 5.3 98 0.1 SSE 4 7 2 4 1028.2 1029.1 2.0
29/08:30am 5.6 3.4 5.3 98 0.1 SSE 6 7 3 4 1028.2 - 2.0
29/08:00am 4.8 3.2 4.5 98 0.1 SSE 2 4 1 2 1028.1 1029.0 2.0
29/07:30am 4.5 2.5 4.2 98 0.1 SSE 4 6 2 3 1027.9 - 2.0
29/07:00am 4.0 1.5 3.7 98 0.1 SSE 6 7 3 4 1027.7 1028.6 2.0
29/06:30am 4.3 2.6 4.0 98 0.1 SSE 2 7 1 4 1027.2 - 2.0
29/06:00am 4.3 1.8 4.0 98 0.1 SSE 6 7 3 4 1027.0 1027.9 2.0
29/05:30am 4.4 2.3 4.1 98 0.1 SSE 4 6 2 3 1026.7 - 2.0
29/05:00am 4.5 2.1 4.2 98 0.1 SSE 6 7 3 4 1026.7 1027.6 2.0
29/04:30am 4.6 2.6 4.3 98 0.1 SSE 4 6 2 3 1026.7 - 2.0
29/04:00am 4.7 2.7 4.4 98 0.1 SSE 4 6 2 3 1026.7 1027.6 2.0
29/03:30am 4.9 3.3 4.6 98 0.1 SSE 2 4 1 2 1026.9 - 2.0
29/03:00am 5.0 2.7 4.7 98 0.1 SSE 6 7 3 4 1026.9 1027.8 2.0
29/02:30am 4.8 2.3 4.5 98 0.1 SSE 7 9 4 5 1027.0 - 2.0
29/02:00am 5.2 2.9 4.9 98 0.1 SE 6 7 3 4 1027.4 1028.3 2.0
29/01:30am 5.3 3.4 5.0 98 0.1 SE 4 7 2 4 1027.6 - 2.0
29/01:00am 5.4 3.2 5.1 98 0.1 SE 6 7 3 4 1027.9 1028.8 2.0
29/12:30am 4.4 3.1 4.1 98 0.1 CALM 0 0 0 0 1028.2 - 2.0
29/12:00am 3.6 2.2 3.3 98 0.1 SE 0 0 0 0 1028.3 1029.2 2.0
 
Date/Time
EST
Temp
°C
App
Temp
°C
Dew
Point
Rel
Hum
%
Delta-T
°C
Wind Press
QNH
hPa
Press
MSL
hPa
Rain
since 9 am
mm
Dir
 
Spd
km/h
Gust
km/h
Spd
kts
Gust
kts
28/11:30pm 4.1 2.7 3.8 98 0.1 CALM 0 0 0 0 1028.4 - 2.0
28/11:00pm 4.9 3.3 4.6 98 0.1 SE 2 4 1 2 1028.6 1029.5 2.0
28/10:30pm 5.5 4.0 5.2 98 0.1 SE 2 4 1 2 1028.6 - 1.8
28/10:00pm 5.6 3.8 5.3 98 0.1 SE 4 7 2 4 1028.7 1029.7 1.8
28/09:30pm 6.9 6.1 6.6 98 0.1 CALM 0 0 0 0 1028.7 - 1.8
28/09:00pm 7.0 6.2 6.7 98 0.1 CALM 0 0 0 0 1028.7 1029.7 1.8
28/08:30pm 7.7 7.1 7.4 98 0.1 CALM 0 0 0 0 1028.7 - 1.8
28/08:00pm 8.2 7.0 7.9 98 0.1 SE 4 6 2 3 1028.6 1029.5 1.8
28/07:30pm 8.4 7.2 8.1 98 0.1 SE 4 6 2 3 1028.6 - 1.8
28/07:00pm 8.6 7.1 8.3 98 0.1 SE 6 7 3 4 1028.5 1029.4 1.8
28/06:30pm 8.7 8.0 8.4 98 0.2 SE 2 4 1 2 1028.4 - 1.6
28/06:00pm 8.9 7.4 8.6 98 0.1 SE 6 7 3 4 1028.3 1029.2 1.4
28/05:30pm 9.2 7.3 8.9 98 0.2 SSE 9 15 5 8 1028.1 - 1.4
28/05:00pm 9.4 7.5 8.9 97 0.3 SSE 9 17 5 9 1027.9 1028.8 1.4
28/04:30pm 9.8 7.0 8.7 93 0.6 SE 13 17 7 9 1027.7 - 1.4
28/04:00pm 9.9 7.7 9.3 96 0.3 SE 11 19 6 10 1027.5 1028.4 1.4
28/03:30pm 9.7 5.8 8.8 94 0.5 SE 19 26 10 14 1027.3 - 1.0
28/03:00pm 11.2 7.3 7.1 76 2.0 SSE 17 24 9 13 1027.0 1027.9 1.0
28/02:30pm 11.5 8.3 7.0 74 2.2 SE 13 20 7 11 1027.2 - 1.0
28/02:00pm 10.8 7.1 8.0 83 1.4 SSE 17 28 9 15 1027.4 1028.3 1.0
28/01:30pm 12.4 9.3 8.9 79 1.8 S 15 20 8 11 1027.3 - 1.0
28/01:00pm 10.9 7.8 8.7 86 1.1 SSE 15 19 8 10 1027.5 1028.4 1.0
28/12:30pm 11.1 7.8 8.1 82 1.5 SSE 15 20 8 11 1027.8 - 1.0
28/12:00pm 10.6 7.4 8.4 86 1.1 SE 15 20 8 11 1028.2 1029.1 1.0
28/11:30am 9.9 7.8 9.6 98 0.2 SE 11 17 6 9 1028.4 - 1.0
28/11:00am 10.1 8.0 9.8 98 0.2 SE 11 15 6 8 1028.9 1029.8 0.6
28/10:30am 9.4 8.1 9.1 98 0.2 SSE 6 9 3 5 1029.0 - 0.6
28/10:00am 8.8 7.1 8.5 98 0.1 SSE 7 11 4 6 1029.1 1030.0 0.2
28/09:30am 8.9 6.5 8.6 98 0.2 S 11 19 6 10 1029.0 - 0.0
28/09:00am 9.0 6.2 8.6 97 0.2 SSE 13 17 7 9 1028.9 1029.8 1.0
28/08:30am 8.2 6.0 7.9 98 0.1 SSE 9 13 5 7 1028.7 - 1.0
28/08:00am 7.8 4.8 7.5 98 0.1 SSE 13 19 7 10 1028.5 1029.4 0.8
28/07:30am 7.2 4.8 6.9 98 0.1 SSE 9 13 5 7 1028.3 - 0.8
28/07:00am 6.9 4.4 6.6 98 0.1 SSE 9 15 5 8 1028.0 1028.9 0.8
28/06:30am 6.6 4.4 6.3 98 0.1 SSE 7 9 4 5 1027.8 - 0.8
28/06:00am 6.7 4.5 6.4 98 0.1 SSE 7 11 4 6 1027.6 1028.5 0.8
28/05:30am 6.2 3.9 5.6 96 0.3 SSE 7 9 4 5 1027.2 - 0.8
28/05:00am 6.9 4.3 6.2 95 0.3 SSE 9 13 5 7 1027.0 1027.9 0.8
28/04:30am 6.9 4.2 5.7 92 0.6 SSE 9 13 5 7 1026.9 - 0.8
28/04:00am 7.1 4.5 6.2 94 0.4 S 9 15 5 8 1027.0 1027.9 0.8
28/03:30am 7.2 4.6 6.1 93 0.5 S 9 15 5 8 1026.9 - 0.6
28/03:00am 7.4 4.5 6.7 95 0.3 S 11 17 6 9 1027.0 1027.9 0.6
28/02:30am 7.0 4.1 6.6 97 0.2 SSE 11 15 6 8 1027.0 - 0.6
28/02:00am 7.6 4.0 6.9 95 0.3 S 15 24 8 13 1027.2 1028.0 0.6
28/01:30am 7.7 4.9 6.8 94 0.4 S 11 20 6 11 1027.4 - 0.6
28/01:00am 8.1 5.7 6.9 92 0.6 S 9 13 5 7 1027.6 1028.5 0.6
28/12:30am 7.8 5.7 6.6 92 0.6 S 7 13 4 7 1027.7 - 0.6
28/12:00am 7.5 3.8 6.1 91 0.7 SSE 15 20 8 11 1027.7 1028.6 0.6
 
Date/Time
EST
Temp
°C
App
Temp
°C
Dew
Point
Rel
Hum
%
Delta-T
°C
Wind Press
QNH
hPa
Press
MSL
hPa
Rain
since 9 am
mm
Dir
 
Spd
km/h
Gust
km/h
Spd
kts
Gust
kts
27/11:30pm 7.6 4.7 6.5 93 0.5 S 11 17 6 9 1027.7 - 0.6
27/11:00pm 7.3 5.5 7.0 98 0.1 SSE 6 7 3 4 1027.8 1028.7 0.6
27/10:30pm 7.6 5.8 7.3 98 0.1 SSE 6 9 3 5 1027.9 - 0.6
27/10:00pm 7.9 6.2 7.6 98 0.1 SSE 6 7 3 4 1027.9 1028.8 0.6
27/09:30pm 7.8 5.9 7.4 97 0.2 SSE 7 15 4 8 1028.0 - 0.6
27/09:00pm 7.6 5.8 7.2 97 0.2 SE 6 7 3 4 1027.9 1028.8 0.6
27/08:30pm 7.6 5.6 7.3 98 0.1 SE 7 11 4 6 1027.9 - 0.6
27/08:00pm 8.1 6.3 7.8 98 0.1 SSE 7 9 4 5 1028.2 1029.1 0.6
27/07:30pm 8.0 6.3 7.4 96 0.3 SSE 6 15 3 8 1028.1 - 0.6
27/07:00pm 7.5 5.4 6.6 94 0.4 SSE 7 9 4 5 1027.9 1028.8 0.6
27/06:30pm 7.8 4.4 5.9 88 0.9 SSE 13 20 7 11 1027.5 - 0.6
27/06:00pm 8.1 4.6 5.6 84 1.2 SSE 13 20 7 11 1027.3 1028.1 0.6
27/05:30pm 8.9 5.0 5.3 78 1.7 SSE 15 22 8 12 1027.3 - 0.6
27/05:00pm 9.5 5.3 5.9 78 1.7 SSE 17 28 9 15 1027.0 1027.9 0.6
27/04:30pm 10.4 5.8 6.4 76 1.9 SE 20 30 11 16 1026.7 - 0.6
27/04:00pm 11.0 6.4 5.5 69 2.6 S 19 28 10 15 1026.5 1027.4 0.6
27/03:30pm 11.8 7.6 5.9 67 2.9 S 17 24 9 13 1026.3 - 0.6
27/03:00pm 10.5 5.9 6.5 76 1.9 SE 20 28 11 15 1026.4 1027.3 0.6
27/02:30pm 9.8 7.6 7.9 88 0.9 ESE 9 13 5 7 1026.4 - 0.6
27/02:00pm 10.1 4.7 6.4 78 1.8 SE 24 39 13 21 1026.4 1027.3 0.4
27/01:30pm 12.0 8.4 6.7 70 2.6 SSE 15 26 8 14 1026.4 - 0.4
27/01:00pm 11.7 7.0 6.0 68 2.7 SE 20 32 11 17 1026.3 1027.2 0.4
27/12:30pm 11.7 6.3 6.4 70 2.6 SSE 24 35 13 19 1026.6 - 0.4
27/12:00pm 12.0 7.4 6.5 69 2.7 SE 20 30 11 16 1027.2 1028.0 0.4
27/11:30am 10.7 7.2 7.0 78 1.8 SE 15 20 8 11 1027.6 - 0.4
27/11:00am 10.6 7.0 8.5 87 1.1 SSE 17 22 9 12 1028.0 1028.9 0.4
27/10:30am 9.0 6.6 8.6 97 0.2 ESE 11 15 6 8 1028.2 - 0.4
27/10:00am 9.6 5.4 7.4 86 1.1 SE 19 28 10 15 1028.1 1029.0 0.0
27/09:30am 9.8 5.0 5.6 75 2.0 SE 20 28 11 15 1027.8 - 0.0
27/09:00am 9.3 4.8 6.2 81 1.5 SE 19 28 10 15 1027.8 1028.7 21.6
27/08:30am 9.7 5.9 7.5 86 1.1 SSE 17 26 9 14 1027.4 - 21.6
27/08:00am 8.7 4.5 7.6 93 0.5 SE 19 26 10 14 1027.3 1028.1 21.6
27/07:30am 7.5 5.1 7.2 98 0.1 SE 9 13 5 7 1027.3 - 21.6
27/07:00am 7.0 4.5 6.7 98 0.1 SE 9 13 5 7 1027.0 1027.9 21.6
27/06:30am 6.9 4.8 6.6 98 0.1 SE 7 13 4 7 1026.7 - 21.6
27/06:00am 6.5 4.3 6.2 98 0.1 SE 7 11 4 6 1026.5 1027.4 21.6
27/05:30am 6.5 4.3 6.2 98 0.1 SSE 7 11 4 6 1026.4 - 21.4
27/05:00am 7.0 4.1 6.7 98 0.1 SE 11 15 6 8 1026.4 1027.3 21.4
27/04:30am 6.5 3.9 6.2 98 0.1 SSE 9 13 5 7 1026.3 - 21.4
27/04:00am 6.6 4.0 6.3 98 0.1 SSE 9 13 5 7 1026.2 1027.1 21.4
27/03:30am 6.9 4.0 6.6 98 0.1 SE 11 17 6 9 1026.2 - 21.4
27/03:00am 7.0 4.5 6.7 98 0.1 SSE 9 13 5 7 1026.4 1027.3 21.4
27/02:30am 7.6 4.5 7.3 98 0.1 SSE 13 19 7 10 1026.6 - 21.4
27/02:00am 7.9 5.3 7.6 98 0.1 SE 11 17 6 9 1026.7 1027.6 21.4
27/01:30am 8.2 5.2 7.9 98 0.1 SE 13 19 7 10 1026.8 - 21.4
27/01:00am 8.4 5.5 8.1 98 0.1 SSE 13 22 7 12 1026.9 1027.8 21.4
27/12:30am 8.6 5.0 8.3 98 0.1 SE 17 24 9 13 1026.8 - 21.2
27/12:00am 8.7 5.9 8.4 98 0.1 ESE 13 19 7 10 1027.0 1027.9 20.2
 
Date/Time
EST
Temp
°C
App
Temp
°C
Dew
Point
Rel
Hum
%
Delta-T
°C
Wind Press
QNH
hPa
Press
MSL
hPa
Rain
since 9 am
mm
Dir
 
Spd
km/h
Gust
km/h
Spd
kts
Gust
kts
26/11:30pm 8.8 6.0 8.5 98 0.2 ESE 13 20 7 11 1027.0 - 18.8
26/11:00pm 8.8 5.2 8.5 98 0.1 ESE 17 26 9 14 1026.8 1027.7 18.2
26/10:30pm 9.2 4.8 8.9 98 0.2 SE 22 33 12 18 1026.9 - 18.2
26/10:00pm 9.1 5.6 8.8 98 0.2 ESE 17 20 9 11 1027.0 1027.9 18.0
26/09:30pm 9.1 6.0 8.8 98 0.2 SE 15 22 8 12 1027.2 - 18.0
26/09:00pm 9.2 5.7 8.9 98 0.2 SE 17 26 9 14 1027.0 1027.9 18.0
26/08:30pm 9.4 6.0 9.1 98 0.2 SE 17 22 9 12 1027.0 - 18.0
26/08:00pm 9.4 5.6 9.1 98 0.2 SE 19 28 10 15 1026.8 1027.7 17.6

Other Formats:

Comma delimited format used in spreadsheet applications
http://www.bom.gov.au/fwo/IDN60801/IDN60801.94943.axf

JavaScript Object Notation format (JSON) in row-major order
http://www.bom.gov.au/fwo/IDN60801/IDN60801.94943.json